createdAt,value
2018-07-05T00:00:29.637Z,21.40
2018-07-05T00:03:09.236Z,21.40
2018-07-05T00:05:48.872Z,21.30
2018-07-05T00:08:28.502Z,21.30
2018-07-05T00:11:08.254Z,21.10
2018-07-05T00:13:47.898Z,21.10
2018-07-05T00:16:27.606Z,21.10
2018-07-05T00:19:07.387Z,21.00
2018-07-05T00:21:47.123Z,21.00
2018-07-05T00:24:26.765Z,20.90
2018-07-05T00:27:06.288Z,20.90
2018-07-05T00:29:45.858Z,20.80
2018-07-05T00:32:25.527Z,20.80
2018-07-05T00:35:05.219Z,20.80
2018-07-05T00:37:44.786Z,20.80
2018-07-05T00:40:24.384Z,20.80
2018-07-05T00:43:03.990Z,20.70
2018-07-05T00:45:43.861Z,20.70
2018-07-05T00:48:23.522Z,20.60
2018-07-05T00:51:04.135Z,20.50
2018-07-05T00:53:43.955Z,20.50
2018-07-05T00:56:23.755Z,20.40
2018-07-05T00:59:03.505Z,20.50
2018-07-05T01:01:43.247Z,20.50
2018-07-05T01:04:22.979Z,20.40
2018-07-05T01:07:02.698Z,20.50
2018-07-05T01:09:42.320Z,20.50
2018-07-05T01:12:21.998Z,20.50
2018-07-05T01:15:01.873Z,20.50
2018-07-05T01:17:41.819Z,20.50
2018-07-05T01:20:21.625Z,20.50
2018-07-05T01:23:01.129Z,20.40
2018-07-05T01:25:40.837Z,20.30
2018-07-05T01:28:20.581Z,20.30
2018-07-05T01:31:00.237Z,20.20
2018-07-05T01:33:40.000Z,20.10
2018-07-05T01:36:19.774Z,20.00
2018-07-05T01:38:59.426Z,19.90
2018-07-05T01:41:39.232Z,19.90
2018-07-05T01:44:18.792Z,19.90
2018-07-05T01:46:58.365Z,19.90
2018-07-05T01:49:37.985Z,19.90
2018-07-05T01:52:17.514Z,19.80
2018-07-05T01:54:57.239Z,19.80
2018-07-05T01:57:36.746Z,19.70
2018-07-05T02:00:16.986Z,19.50
2018-07-05T02:02:56.727Z,19.40
2018-07-05T02:05:36.487Z,19.40
2018-07-05T02:08:16.321Z,19.30
2018-07-05T02:10:55.948Z,19.30
2018-07-05T02:13:35.469Z,19.10
2018-07-05T02:16:15.414Z,19.00
2018-07-05T02:18:55.060Z,18.90
2018-07-05T02:21:35.333Z,18.80
2018-07-05T02:24:15.318Z,18.70
2018-07-05T02:26:55.050Z,18.60
2018-07-05T02:29:34.776Z,18.50
2018-07-05T02:32:14.378Z,18.50
2018-07-05T02:34:54.006Z,18.40
2018-07-05T02:37:38.886Z,18.40
2018-07-05T02:40:18.600Z,18.40
2018-07-05T02:42:58.284Z,18.30
2018-07-05T02:45:38.140Z,18.20
2018-07-05T02:48:17.683Z,18.20
2018-07-05T02:50:57.452Z,18.10
2018-07-05T02:53:37.164Z,18.20
2018-07-05T02:56:16.810Z,18.20
2018-07-05T02:58:56.578Z,18.30
2018-07-05T03:01:36.165Z,18.40
2018-07-05T03:04:16.063Z,18.40
2018-07-05T03:06:55.682Z,18.40
2018-07-05T03:09:35.405Z,18.40
2018-07-05T03:12:15.039Z,18.40
2018-07-05T03:14:54.796Z,18.40
2018-07-05T03:17:34.416Z,18.50
2018-07-05T03:20:14.087Z,18.60
2018-07-05T03:22:53.741Z,18.60
2018-07-05T03:25:33.386Z,18.70
2018-07-05T03:28:13.000Z,18.60
2018-07-05T03:30:52.616Z,18.70
2018-07-05T03:33:32.362Z,18.80
2018-07-05T03:36:12.044Z,18.80
2018-07-05T03:38:51.746Z,18.90
2018-07-05T03:41:31.939Z,18.90
2018-07-05T03:44:12.522Z,18.90
2018-07-05T03:46:52.145Z,19.00
2018-07-05T03:49:31.833Z,19.00
2018-07-05T03:52:11.638Z,19.00
2018-07-05T03:54:51.393Z,19.00
2018-07-05T03:57:31.105Z,18.90
2018-07-05T04:00:10.755Z,19.00
2018-07-05T04:02:50.475Z,19.00
2018-07-05T04:05:30.121Z,19.10
2018-07-05T04:08:09.608Z,19.20
2018-07-05T04:10:49.345Z,19.30
2018-07-05T04:13:29.046Z,19.40
2018-07-05T04:16:08.714Z,19.50
2018-07-05T04:18:48.552Z,19.40
2018-07-05T04:21:28.204Z,19.50
2018-07-05T04:24:07.903Z,19.40
2018-07-05T04:26:48.510Z,19.50
2018-07-05T04:29:28.157Z,19.50
2018-07-05T04:32:07.947Z,19.50
2018-07-05T04:34:47.702Z,19.60
2018-07-05T04:37:27.445Z,19.60
2018-07-05T04:40:07.209Z,19.70
2018-07-05T04:42:46.997Z,19.70
2018-07-05T04:45:27.582Z,19.70
2018-07-05T04:48:07.303Z,19.70
2018-07-05T04:50:47.080Z,19.70
2018-07-05T04:53:26.908Z,19.70
2018-07-05T04:56:06.908Z,19.80
2018-07-05T04:58:46.736Z,19.80
2018-07-05T05:01:27.437Z,19.90
2018-07-05T05:04:07.049Z,20.00
2018-07-05T05:06:46.757Z,20.00
2018-07-05T05:09:26.414Z,20.00
2018-07-05T05:12:06.001Z,20.10
2018-07-05T05:14:45.523Z,20.20
2018-07-05T05:17:25.249Z,20.30
2018-07-05T05:20:05.028Z,20.30
2018-07-05T05:22:44.904Z,20.30
2018-07-05T05:25:24.592Z,20.40
2018-07-05T05:28:04.214Z,20.40
2018-07-05T05:30:43.764Z,20.60
2018-07-05T05:33:23.437Z,20.70
2018-07-05T05:36:02.990Z,20.80
2018-07-05T05:38:42.541Z,20.90
2018-07-05T05:41:22.222Z,21.00
2018-07-05T05:44:01.819Z,21.00
2018-07-05T05:46:41.453Z,21.10
2018-07-05T05:49:21.323Z,21.10
2018-07-05T05:52:00.908Z,21.30
2018-07-05T05:54:40.597Z,21.30
2018-07-05T05:57:20.477Z,21.30
2018-07-05T06:00:00.169Z,21.30
2018-07-05T06:02:39.914Z,21.30
2018-07-05T06:05:19.881Z,21.40
2018-07-05T06:07:59.746Z,21.60
2018-07-05T06:10:39.612Z,21.70
2018-07-05T06:13:19.376Z,21.70
2018-07-05T06:15:59.095Z,21.90
2018-07-05T06:18:39.032Z,21.90
2018-07-05T06:21:18.688Z,22.10
2018-07-05T06:23:58.567Z,22.30
2018-07-05T06:26:38.373Z,22.50
2018-07-05T06:29:18.075Z,22.60
2018-07-05T06:31:57.824Z,22.70
2018-07-05T06:34:37.519Z,22.80
2018-07-05T06:37:17.226Z,23.00
2018-07-05T06:39:56.904Z,23.10
2018-07-05T06:42:36.661Z,23.30
2018-07-05T06:45:16.601Z,23.50
2018-07-05T06:47:56.340Z,23.50
2018-07-05T06:50:36.012Z,23.60
2018-07-05T06:53:15.670Z,23.70
2018-07-05T06:55:55.272Z,23.70
2018-07-05T06:58:34.901Z,23.90
2018-07-05T07:01:15.968Z,23.90
2018-07-05T07:03:55.811Z,24.10
2018-07-05T07:06:35.462Z,24.30
2018-07-05T07:14:15.032Z,24.80
2018-07-05T07:16:54.866Z,25.20
2018-07-05T07:19:34.533Z,25.40
2018-07-05T07:22:14.210Z,25.70
2018-07-05T07:24:53.933Z,25.90
2018-07-05T07:27:33.659Z,26.00
2018-07-05T07:30:13.308Z,26.00
2018-07-05T07:32:53.144Z,26.10
2018-07-05T07:35:33.043Z,26.10
2018-07-05T07:38:12.723Z,26.10
2018-07-05T07:40:52.419Z,26.20
2018-07-05T07:43:19.769Z,26.20
2018-07-05T07:45:47.181Z,26.10
2018-07-05T07:48:14.490Z,25.90
2018-07-05T07:50:41.822Z,26.00
2018-07-05T07:53:09.162Z,26.00
2018-07-05T07:55:36.481Z,26.10
2018-07-05T07:58:03.813Z,26.20
2018-07-05T08:00:31.258Z,26.30
2018-07-05T08:02:58.641Z,26.40
2018-07-05T08:05:26.006Z,26.50
2018-07-05T08:07:53.362Z,26.70
2018-07-05T08:10:20.705Z,26.90
2018-07-05T08:12:48.220Z,27.10
2018-07-05T08:15:15.561Z,27.20
2018-07-05T08:17:42.914Z,27.30
2018-07-05T08:20:10.245Z,27.20
2018-07-05T08:22:37.601Z,27.20
2018-07-05T08:25:04.932Z,27.30
2018-07-05T08:27:32.356Z,27.30
2018-07-05T08:29:59.709Z,27.40
2018-07-05T08:32:27.051Z,27.50
2018-07-05T08:34:54.399Z,27.50
2018-07-05T08:37:21.769Z,27.80
2018-07-05T08:39:49.161Z,28.10
2018-07-05T08:42:16.563Z,28.30
2018-07-05T08:44:43.989Z,28.30
2018-07-05T08:47:11.384Z,28.70
2018-07-05T08:49:38.728Z,29.00
2018-07-05T08:52:06.055Z,28.90
2018-07-05T08:57:01.062Z,29.30
2018-07-05T09:01:56.240Z,29.50
2018-07-05T09:04:24.270Z,29.80
2018-07-05T09:09:19.322Z,30.20
2018-07-05T09:11:46.659Z,30.10
2018-07-05T09:14:14.045Z,30.00
2018-07-05T09:16:41.407Z,30.20
2018-07-05T09:19:08.758Z,30.40
2018-07-05T09:21:36.093Z,30.50
2018-07-05T09:24:03.442Z,30.80
2018-07-05T09:26:30.769Z,30.80
2018-07-05T09:28:58.150Z,30.50
2018-07-05T09:31:25.492Z,30.70
2018-07-05T09:33:52.896Z,30.80
2018-07-05T09:36:20.243Z,31.00
2018-07-05T09:38:47.763Z,31.10
2018-07-05T09:41:15.116Z,31.10
2018-07-05T09:43:42.438Z,31.50
2018-07-05T09:46:10.073Z,31.80
2018-07-05T09:48:37.401Z,32.00
2018-07-05T09:51:04.965Z,32.10
2018-07-05T09:53:32.422Z,32.20
2018-07-05T09:55:59.836Z,32.10
2018-07-05T09:58:27.189Z,32.10
2018-07-05T10:00:54.543Z,32.10
2018-07-05T10:03:22.655Z,32.50
2018-07-05T10:05:50.109Z,32.70
2018-07-05T10:08:18.360Z,32.80
2018-07-05T10:10:45.699Z,33.00
2018-07-05T10:13:13.482Z,33.20
2018-07-05T10:15:40.877Z,33.20
2018-07-05T10:18:08.182Z,33.50
2018-07-05T10:20:35.532Z,33.00
2018-07-05T10:25:30.472Z,33.20
2018-07-05T10:27:57.791Z,33.10
2018-07-05T10:30:37.611Z,33.00
2018-07-05T10:33:17.451Z,33.10
2018-07-05T10:35:44.787Z,33.30
2018-07-05T10:38:12.120Z,33.60
2018-07-05T10:40:52.105Z,33.80
2018-07-05T10:43:31.816Z,33.50
2018-07-05T10:46:11.592Z,33.10
2018-07-05T10:48:51.356Z,33.00
2018-07-05T10:51:31.152Z,33.10
2018-07-05T10:54:10.865Z,33.30
2018-07-05T10:56:50.527Z,33.40
2018-07-05T10:59:30.313Z,33.20
2018-07-05T11:02:09.837Z,33.60
2018-07-05T11:04:49.660Z,33.50
2018-07-05T11:07:29.429Z,33.80
2018-07-05T11:10:09.105Z,33.90
2018-07-05T11:12:48.757Z,33.90
2018-07-05T11:15:28.493Z,33.90
2018-07-05T11:18:08.225Z,34.10
2018-07-05T11:20:48.088Z,34.20
2018-07-05T11:23:27.868Z,33.90
2018-07-05T11:26:07.651Z,34.10
2018-07-05T11:28:47.290Z,34.40
2018-07-05T11:31:27.024Z,34.10
2018-07-05T11:34:06.615Z,34.00
2018-07-05T11:36:46.308Z,33.60
2018-07-05T11:39:26.025Z,33.80
2018-07-05T11:44:39.461Z,34.50
2018-07-05T11:47:19.249Z,34.50
2018-07-05T11:49:59.072Z,34.90
2018-07-05T11:52:38.872Z,35.20
2018-07-05T11:55:18.586Z,35.60
2018-07-05T11:57:58.330Z,35.60
2018-07-05T12:00:38.215Z,35.50
2018-07-05T12:03:17.864Z,35.00
2018-07-05T12:05:57.585Z,35.30
2018-07-05T12:08:37.336Z,35.30
2018-07-05T12:11:17.014Z,35.50
2018-07-05T12:13:56.705Z,35.60
2018-07-05T12:16:36.344Z,35.50
2018-07-05T12:19:16.088Z,35.50
2018-07-05T12:21:56.036Z,35.50
2018-07-05T12:24:35.753Z,35.70
2018-07-05T12:27:15.477Z,35.40
2018-07-05T12:29:55.553Z,35.40
2018-07-05T12:32:35.207Z,35.00
2018-07-05T12:35:14.837Z,35.00
2018-07-05T12:37:54.607Z,34.90
2018-07-05T12:40:34.230Z,35.00
2018-07-05T12:43:13.996Z,35.10
2018-07-05T12:45:53.789Z,35.00
2018-07-05T12:48:33.588Z,35.30
2018-07-05T12:51:13.537Z,35.60
2018-07-05T12:53:53.252Z,35.70
2018-07-05T12:56:32.982Z,35.70
2018-07-05T12:59:12.797Z,35.80
2018-07-05T13:01:52.456Z,35.80
2018-07-05T13:04:32.165Z,36.10
2018-07-05T13:07:11.885Z,35.80
2018-07-05T13:09:51.553Z,34.80
2018-07-05T13:12:31.277Z,34.30
2018-07-05T13:15:11.025Z,34.70
2018-07-05T13:17:50.885Z,34.80
2018-07-05T13:20:30.721Z,35.00
2018-07-05T13:23:10.295Z,35.20
2018-07-05T13:25:49.955Z,35.20
2018-07-05T13:28:29.637Z,35.30
2018-07-05T13:31:09.388Z,35.60
2018-07-05T13:33:48.940Z,35.90
2018-07-05T13:36:28.792Z,35.40
2018-07-05T13:39:08.711Z,35.20
2018-07-05T13:41:48.385Z,35.40
2018-07-05T13:44:27.992Z,34.90
2018-07-05T13:47:07.718Z,34.60
2018-07-05T13:49:47.300Z,34.30
2018-07-05T13:52:27.114Z,34.50
2018-07-05T13:55:06.787Z,34.70
2018-07-05T13:57:46.394Z,34.80
2018-07-05T14:00:26.077Z,34.70
2018-07-05T14:03:05.939Z,34.80
2018-07-05T14:05:45.624Z,35.00
2018-07-05T14:08:25.317Z,35.40
2018-07-05T14:11:05.125Z,35.00
2018-07-05T14:13:44.912Z,34.90
2018-07-05T14:16:24.740Z,35.00
2018-07-05T14:19:04.372Z,34.80
2018-07-05T14:21:44.109Z,34.80
2018-07-05T14:24:23.882Z,34.80
2018-07-05T14:27:03.710Z,35.00
2018-07-05T14:29:43.384Z,34.90
2018-07-05T14:32:23.102Z,34.90
2018-07-05T14:35:03.080Z,35.00
2018-07-05T14:37:43.028Z,34.80
2018-07-05T14:40:22.773Z,34.70
2018-07-05T14:43:02.649Z,34.60
2018-07-05T14:45:42.342Z,34.40
2018-07-05T14:48:22.138Z,34.30
2018-07-05T14:51:01.868Z,34.50
2018-07-05T14:53:41.557Z,34.60
2018-07-05T14:56:21.232Z,34.90
2018-07-05T14:59:00.936Z,34.90
2018-07-05T15:01:40.614Z,34.80
2018-07-05T15:04:20.392Z,34.50
2018-07-05T15:07:00.047Z,34.50
2018-07-05T15:09:39.685Z,34.50
2018-07-05T15:12:19.470Z,34.30
2018-07-05T15:14:59.095Z,34.10
2018-07-05T15:17:39.077Z,34.00
2018-07-05T15:20:18.713Z,33.90
2018-07-05T15:22:58.369Z,33.80
2018-07-05T15:25:38.109Z,33.70
2018-07-05T15:28:17.692Z,33.50
2018-07-05T15:30:57.375Z,33.60
2018-07-05T15:33:37.085Z,33.50
2018-07-05T15:36:16.732Z,33.50
2018-07-05T15:38:56.525Z,33.10
2018-07-05T15:41:36.162Z,33.10
2018-07-05T15:44:15.823Z,33.30
2018-07-05T15:46:55.496Z,33.20
2018-07-05T15:49:35.313Z,33.20
2018-07-05T15:52:15.269Z,33.00
2018-07-05T15:54:55.521Z,33.00
2018-07-05T15:57:35.353Z,33.00
2018-07-05T16:00:15.197Z,32.80
2018-07-05T16:02:54.930Z,32.90
2018-07-05T16:05:34.704Z,32.80
2018-07-05T16:08:14.389Z,32.70
2018-07-05T16:10:54.099Z,32.60
2018-07-05T16:13:33.798Z,32.60
2018-07-05T16:16:13.588Z,32.40
2018-07-05T16:18:53.333Z,32.50
2018-07-05T16:21:33.112Z,32.40
2018-07-05T16:24:12.721Z,32.00
2018-07-05T16:26:52.672Z,32.00
2018-07-05T16:29:32.606Z,31.90
2018-07-05T16:32:12.229Z,31.90
2018-07-05T16:34:52.018Z,31.80
2018-07-05T16:37:31.876Z,31.70
2018-07-05T16:40:11.772Z,31.60
2018-07-05T16:42:51.643Z,31.50
2018-07-05T16:45:31.372Z,31.40
2018-07-05T16:48:11.252Z,31.30
2018-07-05T16:50:51.086Z,31.30
2018-07-05T16:53:30.920Z,31.20
2018-07-05T16:56:10.907Z,31.00
2018-07-05T16:58:50.791Z,30.90
2018-07-05T17:01:30.584Z,30.70
2018-07-05T17:04:10.375Z,30.70
2018-07-05T17:06:50.141Z,30.70
2018-07-05T17:09:29.941Z,30.70
2018-07-05T17:12:09.641Z,30.80
2018-07-05T17:14:49.448Z,30.70
2018-07-05T17:17:29.176Z,30.70
2018-07-05T17:20:09.067Z,30.50
2018-07-05T17:22:48.931Z,30.40
2018-07-05T17:25:28.662Z,30.40
2018-07-05T17:28:08.408Z,30.20
2018-07-05T17:30:48.140Z,30.20
2018-07-05T17:33:27.859Z,30.30
2018-07-05T17:36:07.571Z,30.00
2018-07-05T17:38:47.327Z,29.90
2018-07-05T17:41:26.929Z,29.90
2018-07-05T17:44:06.678Z,29.80
2018-07-05T17:46:46.528Z,29.90
2018-07-05T17:49:26.309Z,29.80
2018-07-05T17:52:05.931Z,29.60
2018-07-05T17:54:45.687Z,29.50
2018-07-05T17:57:25.295Z,29.40
2018-07-05T18:00:04.958Z,29.30
2018-07-05T18:02:44.631Z,29.30
2018-07-05T18:05:24.346Z,29.30
2018-07-05T18:08:04.125Z,29.10
2018-07-05T18:10:43.735Z,29.00
2018-07-05T18:13:23.576Z,29.00
2018-07-05T18:16:03.281Z,28.90
2018-07-05T18:18:43.025Z,28.90
2018-07-05T18:21:22.666Z,28.80
2018-07-05T18:24:03.150Z,28.60
2018-07-05T18:26:42.907Z,28.50
2018-07-05T18:29:22.514Z,28.50
2018-07-05T18:32:02.132Z,28.40
2018-07-05T18:34:42.116Z,28.30
2018-07-05T18:37:21.905Z,28.30
2018-07-05T18:40:01.589Z,28.20
2018-07-05T18:42:41.303Z,28.20
2018-07-05T18:45:20.988Z,28.10
2018-07-05T18:48:00.520Z,28.10
2018-07-05T18:50:40.247Z,28.10
2018-07-05T18:53:20.019Z,28.10
2018-07-05T18:55:59.756Z,27.90
2018-07-05T18:58:39.513Z,27.80
2018-07-05T19:01:19.219Z,27.60
2018-07-05T19:03:58.880Z,27.60
2018-07-05T19:06:38.583Z,27.40
2018-07-05T19:09:18.282Z,27.30
2018-07-05T19:11:57.908Z,27.10
2018-07-05T19:17:11.372Z,27.00
2018-07-05T19:19:51.273Z,27.00
2018-07-05T19:22:30.991Z,26.80
2018-07-05T19:25:10.719Z,26.70
2018-07-05T19:27:50.458Z,26.60
2018-07-05T19:30:30.155Z,26.50
2018-07-05T19:33:09.888Z,26.50
2018-07-05T19:35:49.606Z,26.40
2018-07-05T19:38:29.343Z,26.40
2018-07-05T19:41:09.045Z,26.30
2018-07-05T19:43:48.742Z,26.10
2018-07-05T19:46:28.294Z,26.00
2018-07-05T19:49:07.944Z,26.00
2018-07-05T19:51:47.625Z,25.90
2018-07-05T19:54:27.506Z,25.80
2018-07-05T19:57:07.253Z,25.80
2018-07-05T19:59:47.036Z,25.60
2018-07-05T20:02:26.693Z,25.50
2018-07-05T20:05:06.498Z,25.40
2018-07-05T20:07:46.200Z,25.30
2018-07-05T20:10:26.092Z,25.30
2018-07-05T20:13:05.820Z,25.20
2018-07-05T20:15:45.619Z,25.20
2018-07-05T20:18:25.184Z,25.10
2018-07-05T20:21:04.946Z,25.10
2018-07-05T20:23:44.611Z,25.00
2018-07-05T20:26:24.249Z,24.90
2018-07-05T20:29:03.880Z,24.70
2018-07-05T20:31:43.605Z,24.70
2018-07-05T20:34:23.301Z,24.70
2018-07-05T20:37:03.336Z,24.80
2018-07-05T20:39:43.075Z,24.70
2018-07-05T20:42:22.801Z,24.50
2018-07-05T20:45:02.513Z,24.50
2018-07-05T20:47:42.283Z,24.40
2018-07-05T20:50:21.862Z,24.50
2018-07-05T20:53:01.531Z,24.40
2018-07-05T20:55:41.205Z,24.40
2018-07-05T20:58:20.995Z,24.30
2018-07-05T21:01:00.753Z,24.30
2018-07-05T21:03:40.329Z,24.30
2018-07-05T21:06:20.001Z,24.20
2018-07-05T21:08:59.667Z,24.20
2018-07-05T21:11:39.303Z,24.20
2018-07-05T21:14:18.965Z,24.10
2018-07-05T21:16:58.591Z,24.00
2018-07-05T21:19:38.377Z,23.70
2018-07-05T21:22:17.925Z,23.60
2018-07-05T21:24:57.666Z,23.50
2018-07-05T21:27:37.403Z,23.40
2018-07-05T21:30:17.091Z,23.30
2018-07-05T21:32:56.827Z,23.30
2018-07-05T21:35:36.557Z,23.20
2018-07-05T21:38:16.338Z,23.10
2018-07-05T21:40:56.101Z,23.00
2018-07-05T21:43:35.766Z,23.00
2018-07-05T21:46:16.031Z,23.00
2018-07-05T21:48:55.856Z,22.90
2018-07-05T21:51:35.545Z,23.00
2018-07-05T21:54:15.201Z,22.80
2018-07-05T21:56:54.759Z,22.80
2018-07-05T21:59:34.501Z,22.80
2018-07-05T22:02:14.206Z,22.80
2018-07-05T22:04:53.802Z,22.60
2018-07-05T22:07:33.474Z,22.60
2018-07-05T22:10:13.273Z,22.50
2018-07-05T22:12:53.005Z,22.50
2018-07-05T22:15:32.677Z,22.50
2018-07-05T22:18:17.772Z,22.40
2018-07-05T22:21:02.976Z,22.40
2018-07-05T22:23:48.145Z,22.40
2018-07-05T22:26:32.561Z,22.40
2018-07-05T22:29:17.641Z,22.40
2018-07-05T22:31:58.536Z,22.30
2018-07-05T22:34:38.224Z,22.30
2018-07-05T22:37:17.922Z,22.20
2018-07-05T22:39:57.784Z,22.10
2018-07-05T22:42:37.867Z,22.00
2018-07-05T22:45:17.550Z,21.90
2018-07-05T22:47:57.240Z,21.90
2018-07-05T22:50:37.031Z,21.70
2018-07-05T22:53:16.717Z,21.70
2018-07-05T22:55:56.368Z,21.70
2018-07-05T22:58:36.311Z,21.70
2018-07-05T23:01:16.299Z,21.60
2018-07-05T23:03:56.761Z,21.60
2018-07-05T23:06:36.493Z,21.40
2018-07-05T23:09:16.243Z,21.40
2018-07-05T23:11:56.100Z,21.30
2018-07-05T23:14:35.831Z,21.30
2018-07-05T23:17:15.475Z,21.20
2018-07-05T23:19:55.266Z,21.20
2018-07-05T23:22:35.018Z,21.20
2018-07-05T23:25:14.638Z,21.10
2018-07-05T23:27:55.451Z,21.00
2018-07-05T23:33:09.068Z,20.80
2018-07-05T23:35:48.620Z,20.80
2018-07-05T23:38:28.291Z,20.70
2018-07-05T23:41:07.935Z,20.50
2018-07-05T23:43:47.616Z,20.50
2018-07-05T23:46:27.237Z,20.30
2018-07-05T23:49:06.833Z,20.30
2018-07-05T23:51:46.480Z,20.30
2018-07-05T23:54:26.039Z,20.30
2018-07-05T23:57:05.801Z,20.30
2018-07-05T23:59:45.549Z,20.30
